sensor_id;sensor_type;location;lat;lon;timestamp;P1;durP1;ratioP1;P2;durP2;ratioP2
58208;SDS011;44006;52.028;4.696;2023-09-19T00:00:22;10.90;;;2.40;;
58208;SDS011;44006;52.028;4.696;2023-09-19T00:02:55;8.38;;;2.03;;
58208;SDS011;44006;52.028;4.696;2023-09-19T00:05:27;7.53;;;2.05;;
58208;SDS011;44006;52.028;4.696;2023-09-19T00:07:53;6.60;;;1.98;;
58208;SDS011;44006;52.028;4.696;2023-09-19T00:10:19;7.50;;;1.70;;
58208;SDS011;44006;52.028;4.696;2023-09-19T00:12:46;8.48;;;2.15;;
58208;SDS011;44006;52.028;4.696;2023-09-19T00:15:12;11.25;;;2.00;;
58208;SDS011;44006;52.028;4.696;2023-09-19T00:17:37;11.15;;;2.13;;
58208;SDS011;44006;52.028;4.696;2023-09-19T00:20:03;8.43;;;2.07;;
58208;SDS011;44006;52.028;4.696;2023-09-19T00:22:32;7.97;;;2.20;;
58208;SDS011;44006;52.028;4.696;2023-09-19T00:24:58;11.27;;;2.08;;
58208;SDS011;44006;52.028;4.696;2023-09-19T00:27:23;11.87;;;2.37;;
58208;SDS011;44006;52.028;4.696;2023-09-19T00:29:48;7.37;;;2.20;;
58208;SDS011;44006;52.028;4.696;2023-09-19T00:32:13;7.33;;;2.23;;
58208;SDS011;44006;52.028;4.696;2023-09-19T00:34:38;13.40;;;2.20;;
58208;SDS011;44006;52.028;4.696;2023-09-19T00:37:04;12.15;;;2.15;;
58208;SDS011;44006;52.028;4.696;2023-09-19T00:39:29;9.32;;;2.08;;
58208;SDS011;44006;52.028;4.696;2023-09-19T00:41:56;10.35;;;2.58;;
58208;SDS011;44006;52.028;4.696;2023-09-19T00:44:22;10.82;;;1.92;;
58208;SDS011;44006;52.028;4.696;2023-09-19T00:46:48;6.75;;;2.03;;
58208;SDS011;44006;52.028;4.696;2023-09-19T00:49:15;8.35;;;2.08;;
58208;SDS011;44006;52.028;4.696;2023-09-19T00:51:41;8.73;;;2.20;;
58208;SDS011;44006;52.028;4.696;2023-09-19T00:54:10;8.00;;;2.25;;
58208;SDS011;44006;52.028;4.696;2023-09-19T00:56:37;11.02;;;2.20;;
58208;SDS011;44006;52.028;4.696;2023-09-19T00:59:05;10.25;;;1.92;;
58208;SDS011;44006;52.028;4.696;2023-09-19T01:01:31;10.35;;;2.45;;
58208;SDS011;44006;52.028;4.696;2023-09-19T01:03:56;8.65;;;2.17;;
58208;SDS011;44006;52.028;4.696;2023-09-19T01:06:22;6.95;;;1.98;;
58208;SDS011;44006;52.028;4.696;2023-09-19T01:08:47;6.97;;;2.00;;
58208;SDS011;44006;52.028;4.696;2023-09-19T01:11:19;12.57;;;2.55;;
58208;SDS011;44006;52.028;4.696;2023-09-19T01:16:29;10.38;;;2.13;;
58208;SDS011;44006;52.028;4.696;2023-09-19T01:29:39;14.23;;;2.33;;
58208;SDS011;44006;52.028;4.696;2023-09-19T01:32:08;12.68;;;2.22;;
58208;SDS011;44006;52.028;4.696;2023-09-19T01:34:44;16.00;;;2.30;;
58208;SDS011;44006;52.028;4.696;2023-09-19T01:37:12;9.65;;;2.65;;
58208;SDS011;44006;52.028;4.696;2023-09-19T01:39:37;14.98;;;2.28;;
58208;SDS011;44006;52.028;4.696;2023-09-19T01:44:35;14.27;;;2.83;;
58208;SDS011;44006;52.028;4.696;2023-09-19T01:47:03;15.23;;;3.58;;
58208;SDS011;44006;52.028;4.696;2023-09-19T01:49:37;15.02;;;2.97;;
58208;SDS011;44006;52.028;4.696;2023-09-19T01:52:12;13.88;;;2.92;;
58208;SDS011;44006;52.028;4.696;2023-09-19T01:54:56;11.75;;;2.88;;
58208;SDS011;44006;52.028;4.696;2023-09-19T01:57:28;16.90;;;3.10;;
58208;SDS011;44006;52.028;4.696;2023-09-19T01:59:57;16.45;;;3.13;;
58208;SDS011;44006;52.028;4.696;2023-09-19T02:02:25;16.50;;;3.13;;
58208;SDS011;44006;52.028;4.696;2023-09-19T02:04:51;16.27;;;2.78;;
58208;SDS011;44006;52.028;4.696;2023-09-19T02:07:19;19.95;;;3.25;;
58208;SDS011;44006;52.028;4.696;2023-09-19T02:09:44;15.43;;;2.83;;
58208;SDS011;44006;52.028;4.696;2023-09-19T02:12:10;14.15;;;2.90;;
58208;SDS011;44006;52.028;4.696;2023-09-19T02:14:35;14.98;;;2.88;;
58208;SDS011;44006;52.028;4.696;2023-09-19T02:17:01;15.20;;;2.30;;
58208;SDS011;44006;52.028;4.696;2023-09-19T02:19:27;14.70;;;2.45;;
58208;SDS011;44006;52.028;4.696;2023-09-19T02:21:53;13.65;;;2.45;;
58208;SDS011;44006;52.028;4.696;2023-09-19T02:24:18;20.42;;;3.40;;
58208;SDS011;44006;52.028;4.696;2023-09-19T02:26:44;20.50;;;2.65;;
58208;SDS011;44006;52.028;4.696;2023-09-19T02:29:09;17.70;;;2.60;;
58208;SDS011;44006;52.028;4.696;2023-09-19T02:31:38;16.15;;;2.67;;
58208;SDS011;44006;52.028;4.696;2023-09-19T02:34:03;16.65;;;2.53;;
58208;SDS011;44006;52.028;4.696;2023-09-19T02:36:30;12.52;;;2.85;;
58208;SDS011;44006;52.028;4.696;2023-09-19T02:38:56;12.60;;;2.88;;
58208;SDS011;44006;52.028;4.696;2023-09-19T02:41:21;14.32;;;2.63;;
58208;SDS011;44006;52.028;4.696;2023-09-19T02:43:46;18.25;;;2.60;;
58208;SDS011;44006;52.028;4.696;2023-09-19T02:46:12;18.42;;;2.40;;
58208;SDS011;44006;52.028;4.696;2023-09-19T02:48:38;15.00;;;2.40;;
58208;SDS011;44006;52.028;4.696;2023-09-19T02:51:03;10.73;;;2.25;;
58208;SDS011;44006;52.028;4.696;2023-09-19T02:53:29;12.07;;;1.90;;
58208;SDS011;44006;52.028;4.696;2023-09-19T02:55:56;14.40;;;2.42;;
58208;SDS011;44006;52.028;4.696;2023-09-19T02:58:21;12.50;;;2.20;;
58208;SDS011;44006;52.028;4.696;2023-09-19T03:00:47;13.80;;;2.38;;
58208;SDS011;44006;52.028;4.696;2023-09-19T03:03:16;13.52;;;2.20;;
58208;SDS011;44006;52.028;4.696;2023-09-19T03:05:41;15.13;;;2.35;;
58208;SDS011;44006;52.028;4.696;2023-09-19T03:08:11;12.88;;;2.58;;
58208;SDS011;44006;52.028;4.696;2023-09-19T03:10:39;10.10;;;2.33;;
58208;SDS011;44006;52.028;4.696;2023-09-19T03:13:05;13.10;;;2.57;;
58208;SDS011;44006;52.028;4.696;2023-09-19T03:15:30;16.70;;;2.58;;
58208;SDS011;44006;52.028;4.696;2023-09-19T03:17:56;12.38;;;2.00;;
58208;SDS011;44006;52.028;4.696;2023-09-19T03:20:22;15.77;;;2.42;;
58208;SDS011;44006;52.028;4.696;2023-09-19T03:22:49;10.97;;;2.37;;
58208;SDS011;44006;52.028;4.696;2023-09-19T03:25:14;14.25;;;2.50;;
58208;SDS011;44006;52.028;4.696;2023-09-19T03:27:39;9.05;;;2.15;;
58208;SDS011;44006;52.028;4.696;2023-09-19T03:30:05;10.75;;;2.38;;
58208;SDS011;44006;52.028;4.696;2023-09-19T03:32:37;14.43;;;2.40;;
58208;SDS011;44006;52.028;4.696;2023-09-19T03:35:02;12.15;;;2.95;;
58208;SDS011;44006;52.028;4.696;2023-09-19T03:37:30;14.50;;;3.30;;
58208;SDS011;44006;52.028;4.696;2023-09-19T03:39:55;13.90;;;2.22;;
58208;SDS011;44006;52.028;4.696;2023-09-19T03:42:20;14.00;;;2.47;;
58208;SDS011;44006;52.028;4.696;2023-09-19T03:44:50;13.07;;;2.67;;
58208;SDS011;44006;52.028;4.696;2023-09-19T03:47:17;15.05;;;3.60;;
58208;SDS011;44006;52.028;4.696;2023-09-19T03:49:43;13.77;;;2.65;;
58208;SDS011;44006;52.028;4.696;2023-09-19T03:52:08;12.10;;;2.50;;
58208;SDS011;44006;52.028;4.696;2023-09-19T03:54:33;14.80;;;2.43;;
58208;SDS011;44006;52.028;4.696;2023-09-19T03:56:58;8.85;;;2.10;;
58208;SDS011;44006;52.028;4.696;2023-09-19T03:59:23;14.82;;;2.58;;
58208;SDS011;44006;52.028;4.696;2023-09-19T04:01:49;18.15;;;2.60;;
58208;SDS011;44006;52.028;4.696;2023-09-19T04:04:15;20.13;;;3.28;;
58208;SDS011;44006;52.028;4.696;2023-09-19T04:06:40;13.10;;;2.65;;
58208;SDS011;44006;52.028;4.696;2023-09-19T04:09:05;17.47;;;3.33;;
58208;SDS011;44006;52.028;4.696;2023-09-19T04:11:32;13.82;;;2.97;;
58208;SDS011;44006;52.028;4.696;2023-09-19T04:13:58;21.48;;;2.80;;
58208;SDS011;44006;52.028;4.696;2023-09-19T04:16:23;11.57;;;2.50;;
58208;SDS011;44006;52.028;4.696;2023-09-19T04:18:48;15.10;;;2.47;;
58208;SDS011;44006;52.028;4.696;2023-09-19T04:21:14;13.60;;;2.67;;
58208;SDS011;44006;52.028;4.696;2023-09-19T04:23:39;18.65;;;3.00;;
58208;SDS011;44006;52.028;4.696;2023-09-19T04:26:04;12.68;;;2.72;;
58208;SDS011;44006;52.028;4.696;2023-09-19T04:28:30;11.50;;;2.70;;
58208;SDS011;44006;52.028;4.696;2023-09-19T04:30:56;13.25;;;2.92;;
58208;SDS011;44006;52.028;4.696;2023-09-19T04:33:21;12.05;;;2.80;;
58208;SDS011;44006;52.028;4.696;2023-09-19T04:35:48;11.25;;;2.70;;
58208;SDS011;44006;52.028;4.696;2023-09-19T04:38:14;14.77;;;2.83;;
58208;SDS011;44006;52.028;4.696;2023-09-19T04:40:40;9.30;;;2.05;;
58208;SDS011;44006;52.028;4.696;2023-09-19T04:43:05;11.90;;;2.53;;
58208;SDS011;44006;52.028;4.696;2023-09-19T04:45:31;13.90;;;2.63;;
58208;SDS011;44006;52.028;4.696;2023-09-19T04:47:56;16.80;;;2.85;;
58208;SDS011;44006;52.028;4.696;2023-09-19T04:50:21;12.32;;;2.58;;
58208;SDS011;44006;52.028;4.696;2023-09-19T04:52:51;15.18;;;2.53;;
58208;SDS011;44006;52.028;4.696;2023-09-19T04:55:19;13.30;;;2.65;;
58208;SDS011;44006;52.028;4.696;2023-09-19T04:57:46;13.77;;;2.20;;
58208;SDS011;44006;52.028;4.696;2023-09-19T05:00:15;15.55;;;2.88;;
58208;SDS011;44006;52.028;4.696;2023-09-19T05:02:42;12.75;;;2.30;;
58208;SDS011;44006;52.028;4.696;2023-09-19T05:05:08;15.93;;;2.95;;
58208;SDS011;44006;52.028;4.696;2023-09-19T05:07:33;16.25;;;2.85;;
58208;SDS011;44006;52.028;4.696;2023-09-19T05:09:59;12.98;;;2.65;;
58208;SDS011;44006;52.028;4.696;2023-09-19T05:12:25;19.90;;;2.80;;
58208;SDS011;44006;52.028;4.696;2023-09-19T05:14:51;13.75;;;3.08;;
58208;SDS011;44006;52.028;4.696;2023-09-19T05:17:16;10.93;;;2.92;;
58208;SDS011;44006;52.028;4.696;2023-09-19T05:19:42;13.88;;;2.67;;
58208;SDS011;44006;52.028;4.696;2023-09-19T05:22:07;13.45;;;2.55;;
58208;SDS011;44006;52.028;4.696;2023-09-19T05:24:33;11.65;;;2.70;;
58208;SDS011;44006;52.028;4.696;2023-09-19T05:26:58;12.05;;;2.58;;
58208;SDS011;44006;52.028;4.696;2023-09-19T05:29:24;10.13;;;2.13;;
58208;SDS011;44006;52.028;4.696;2023-09-19T05:31:49;12.82;;;2.88;;
58208;SDS011;44006;52.028;4.696;2023-09-19T05:34:16;10.48;;;2.58;;
58208;SDS011;44006;52.028;4.696;2023-09-19T05:36:41;18.77;;;3.38;;
58208;SDS011;44006;52.028;4.696;2023-09-19T05:39:07;18.58;;;3.10;;
58208;SDS011;44006;52.028;4.696;2023-09-19T05:41:34;11.25;;;2.83;;
58208;SDS011;44006;52.028;4.696;2023-09-19T05:44:01;12.52;;;2.90;;
58208;SDS011;44006;52.028;4.696;2023-09-19T05:46:27;15.18;;;3.20;;
58208;SDS011;44006;52.028;4.696;2023-09-19T05:48:54;20.30;;;3.15;;
58208;SDS011;44006;52.028;4.696;2023-09-19T05:51:21;20.20;;;3.08;;
58208;SDS011;44006;52.028;4.696;2023-09-19T05:53:47;12.48;;;2.90;;
58208;SDS011;44006;52.028;4.696;2023-09-19T05:56:13;14.30;;;3.00;;
58208;SDS011;44006;52.028;4.696;2023-09-19T05:58:39;12.20;;;3.08;;
58208;SDS011;44006;52.028;4.696;2023-09-19T06:01:06;16.42;;;2.65;;
58208;SDS011;44006;52.028;4.696;2023-09-19T06:03:32;18.48;;;3.05;;
58208;SDS011;44006;52.028;4.696;2023-09-19T06:05:58;15.68;;;2.92;;
58208;SDS011;44006;52.028;4.696;2023-09-19T06:08:23;11.13;;;2.80;;
58208;SDS011;44006;52.028;4.696;2023-09-19T06:10:48;13.43;;;2.85;;
58208;SDS011;44006;52.028;4.696;2023-09-19T06:13:14;15.52;;;3.80;;
58208;SDS011;44006;52.028;4.696;2023-09-19T06:15:39;16.70;;;3.22;;
58208;SDS011;44006;52.028;4.696;2023-09-19T06:18:07;14.68;;;2.85;;
58208;SDS011;44006;52.028;4.696;2023-09-19T06:20:38;20.70;;;3.47;;
58208;SDS011;44006;52.028;4.696;2023-09-19T06:23:09;20.85;;;3.33;;
58208;SDS011;44006;52.028;4.696;2023-09-19T06:25:35;15.02;;;3.10;;
58208;SDS011;44006;52.028;4.696;2023-09-19T06:28:00;14.57;;;3.03;;
58208;SDS011;44006;52.028;4.696;2023-09-19T06:30:30;15.40;;;3.70;;
58208;SDS011;44006;52.028;4.696;2023-09-19T06:32:59;18.50;;;3.95;;
58208;SDS011;44006;52.028;4.696;2023-09-19T06:35:25;14.57;;;3.15;;
58208;SDS011;44006;52.028;4.696;2023-09-19T06:37:51;14.68;;;3.17;;
58208;SDS011;44006;52.028;4.696;2023-09-19T06:40:17;18.08;;;3.33;;
58208;SDS011;44006;52.028;4.696;2023-09-19T06:42:44;15.40;;;3.45;;
58208;SDS011;44006;52.028;4.696;2023-09-19T06:45:13;18.17;;;3.33;;
58208;SDS011;44006;52.028;4.696;2023-09-19T06:47:43;18.33;;;3.63;;
58208;SDS011;44006;52.028;4.696;2023-09-19T06:50:08;18.75;;;3.35;;
58208;SDS011;44006;52.028;4.696;2023-09-19T06:52:38;14.30;;;3.47;;
58208;SDS011;44006;52.028;4.696;2023-09-19T06:55:03;18.02;;;3.35;;
58208;SDS011;44006;52.028;4.696;2023-09-19T06:57:30;17.33;;;2.97;;
58208;SDS011;44006;52.028;4.696;2023-09-19T06:59:56;17.00;;;3.45;;
58208;SDS011;44006;52.028;4.696;2023-09-19T07:02:21;19.33;;;3.95;;
58208;SDS011;44006;52.028;4.696;2023-09-19T07:04:47;16.52;;;3.72;;
58208;SDS011;44006;52.028;4.696;2023-09-19T07:07:12;14.48;;;3.33;;
58208;SDS011;44006;52.028;4.696;2023-09-19T07:09:38;19.25;;;3.63;;
58208;SDS011;44006;52.028;4.696;2023-09-19T07:12:04;15.23;;;3.03;;
58208;SDS011;44006;52.028;4.696;2023-09-19T07:14:29;14.30;;;4.32;;
58208;SDS011;44006;52.028;4.696;2023-09-19T07:16:55;20.67;;;3.22;;
58208;SDS011;44006;52.028;4.696;2023-09-19T07:19:20;17.92;;;2.83;;
58208;SDS011;44006;52.028;4.696;2023-09-19T07:21:45;13.40;;;3.17;;
58208;SDS011;44006;52.028;4.696;2023-09-19T07:24:12;20.05;;;3.53;;
58208;SDS011;44006;52.028;4.696;2023-09-19T07:26:38;14.02;;;3.08;;
58208;SDS011;44006;52.028;4.696;2023-09-19T07:29:05;19.80;;;3.70;;
58208;SDS011;44006;52.028;4.696;2023-09-19T07:31:34;21.40;;;3.88;;
58208;SDS011;44006;52.028;4.696;2023-09-19T07:33:59;14.35;;;3.10;;
58208;SDS011;44006;52.028;4.696;2023-09-19T07:36:24;11.48;;;2.60;;
58208;SDS011;44006;52.028;4.696;2023-09-19T07:38:50;17.42;;;3.38;;
58208;SDS011;44006;52.028;4.696;2023-09-19T07:41:15;14.65;;;3.25;;
58208;SDS011;44006;52.028;4.696;2023-09-19T07:43:40;17.40;;;3.33;;
58208;SDS011;44006;52.028;4.696;2023-09-19T07:46:06;21.38;;;3.33;;
58208;SDS011;44006;52.028;4.696;2023-09-19T07:48:32;24.08;;;3.70;;
58208;SDS011;44006;52.028;4.696;2023-09-19T07:51:01;15.55;;;3.83;;
58208;SDS011;44006;52.028;4.696;2023-09-19T07:53:26;17.85;;;3.70;;
58208;SDS011;44006;52.028;4.696;2023-09-19T07:55:53;21.88;;;3.42;;
58208;SDS011;44006;52.028;4.696;2023-09-19T07:58:26;15.73;;;3.97;;
58208;SDS011;44006;52.028;4.696;2023-09-19T08:00:51;14.85;;;2.80;;
58208;SDS011;44006;52.028;4.696;2023-09-19T08:03:16;22.20;;;3.83;;
58208;SDS011;44006;52.028;4.696;2023-09-19T08:05:43;24.52;;;3.97;;
58208;SDS011;44006;52.028;4.696;2023-09-19T08:08:08;17.20;;;3.55;;
58208;SDS011;44006;52.028;4.696;2023-09-19T08:10:33;19.85;;;3.55;;
58208;SDS011;44006;52.028;4.696;2023-09-19T08:13:00;17.33;;;3.33;;
58208;SDS011;44006;52.028;4.696;2023-09-19T08:15:27;19.20;;;3.92;;
58208;SDS011;44006;52.028;4.696;2023-09-19T08:17:52;21.77;;;3.90;;
58208;SDS011;44006;52.028;4.696;2023-09-19T08:20:18;22.23;;;3.90;;
58208;SDS011;44006;52.028;4.696;2023-09-19T08:22:49;22.35;;;3.80;;
58208;SDS011;44006;52.028;4.696;2023-09-19T08:25:17;15.50;;;3.22;;
58208;SDS011;44006;52.028;4.696;2023-09-19T08:27:43;14.68;;;3.28;;
58208;SDS011;44006;52.028;4.696;2023-09-19T08:30:11;13.25;;;3.42;;
58208;SDS011;44006;52.028;4.696;2023-09-19T08:32:36;20.58;;;4.63;;
58208;SDS011;44006;52.028;4.696;2023-09-19T08:35:02;11.73;;;3.55;;
58208;SDS011;44006;52.028;4.696;2023-09-19T08:37:27;20.83;;;3.85;;
58208;SDS011;44006;52.028;4.696;2023-09-19T08:39:52;20.27;;;3.70;;
58208;SDS011;44006;52.028;4.696;2023-09-19T08:42:19;18.00;;;3.37;;
58208;SDS011;44006;52.028;4.696;2023-09-19T08:44:46;19.85;;;3.50;;
58208;SDS011;44006;52.028;4.696;2023-09-19T08:47:15;16.55;;;3.53;;
58208;SDS011;44006;52.028;4.696;2023-09-19T08:52:28;16.48;;;3.38;;
58208;SDS011;44006;52.028;4.696;2023-09-19T08:54:58;15.40;;;3.13;;
58208;SDS011;44006;52.028;4.696;2023-09-19T08:57:26;14.13;;;3.92;;
58208;SDS011;44006;52.028;4.696;2023-09-19T08:59:53;18.95;;;3.88;;
58208;SDS011;44006;52.028;4.696;2023-09-19T09:02:19;23.23;;;4.30;;
58208;SDS011;44006;52.028;4.696;2023-09-19T09:04:45;13.15;;;3.08;;
58208;SDS011;44006;52.028;4.696;2023-09-19T09:07:12;18.65;;;3.38;;
58208;SDS011;44006;52.028;4.696;2023-09-19T09:09:38;19.25;;;3.67;;
58208;SDS011;44006;52.028;4.696;2023-09-19T09:12:11;18.48;;;3.10;;
58208;SDS011;44006;52.028;4.696;2023-09-19T09:14:37;18.38;;;3.60;;
58208;SDS011;44006;52.028;4.696;2023-09-19T09:17:03;22.42;;;3.58;;
58208;SDS011;44006;52.028;4.696;2023-09-19T09:19:29;13.75;;;3.35;;
58208;SDS011;44006;52.028;4.696;2023-09-19T09:22:05;17.52;;;3.70;;
58208;SDS011;44006;52.028;4.696;2023-09-19T09:24:30;16.80;;;3.15;;
58208;SDS011;44006;52.028;4.696;2023-09-19T09:26:58;17.75;;;4.28;;
58208;SDS011;44006;52.028;4.696;2023-09-19T09:32:18;18.33;;;4.18;;
58208;SDS011;44006;52.028;4.696;2023-09-19T09:34:45;16.73;;;3.22;;
58208;SDS011;44006;52.028;4.696;2023-09-19T09:37:17;19.77;;;3.17;;
58208;SDS011;44006;52.028;4.696;2023-09-19T09:39:55;14.48;;;3.15;;
58208;SDS011;44006;52.028;4.696;2023-09-19T09:42:30;20.42;;;3.33;;
58208;SDS011;44006;52.028;4.696;2023-09-19T09:45:13;19.90;;;3.63;;
58208;SDS011;44006;52.028;4.696;2023-09-19T09:47:46;16.35;;;3.30;;
58208;SDS011;44006;52.028;4.696;2023-09-19T09:50:35;17.67;;;3.30;;
58208;SDS011;44006;52.028;4.696;2023-09-19T09:53:22;21.67;;;3.73;;
58208;SDS011;44006;52.028;4.696;2023-09-19T09:56:03;18.58;;;3.30;;
58208;SDS011;44006;52.028;4.696;2023-09-19T09:58:52;16.23;;;3.92;;
58208;SDS011;44006;52.028;4.696;2023-09-19T10:01:24;14.50;;;3.33;;
58208;SDS011;44006;52.028;4.696;2023-09-19T10:03:52;12.65;;;3.20;;
58208;SDS011;44006;52.028;4.696;2023-09-19T10:06:21;15.80;;;3.15;;
58208;SDS011;44006;52.028;4.696;2023-09-19T10:09:08;15.93;;;3.35;;
58208;SDS011;44006;52.028;4.696;2023-09-19T10:12:22;19.15;;;3.38;;
58208;SDS011;44006;52.028;4.696;2023-09-19T10:14:24;13.02;;;3.13;;
58208;SDS011;44006;52.028;4.696;2023-09-19T10:16:50;14.73;;;2.80;;
58208;SDS011;44006;52.028;4.696;2023-09-19T10:19:54;14.00;;;4.13;;
58208;SDS011;44006;52.028;4.696;2023-09-19T10:22:12;15.82;;;2.97;;
58208;SDS011;44006;52.028;4.696;2023-09-19T10:24:39;13.20;;;2.95;;
58208;SDS011;44006;52.028;4.696;2023-09-19T10:27:06;13.10;;;2.90;;
58208;SDS011;44006;52.028;4.696;2023-09-19T10:29:33;10.48;;;3.25;;
58208;SDS011;44006;52.028;4.696;2023-09-19T10:32:01;10.25;;;2.75;;
58208;SDS011;44006;52.028;4.696;2023-09-19T10:34:31;13.02;;;3.03;;
58208;SDS011;44006;52.028;4.696;2023-09-19T10:36:59;16.60;;;2.65;;
58208;SDS011;44006;52.028;4.696;2023-09-19T10:39:27;13.38;;;2.80;;
58208;SDS011;44006;52.028;4.696;2023-09-19T10:41:56;14.38;;;2.67;;
58208;SDS011;44006;52.028;4.696;2023-09-19T10:44:24;10.55;;;2.60;;
58208;SDS011;44006;52.028;4.696;2023-09-19T10:46:50;14.65;;;3.05;;
58208;SDS011;44006;52.028;4.696;2023-09-19T10:49:16;11.32;;;2.65;;
58208;SDS011;44006;52.028;4.696;2023-09-19T10:51:43;13.45;;;2.50;;
58208;SDS011;44006;52.028;4.696;2023-09-19T10:54:10;9.43;;;2.30;;
58208;SDS011;44006;52.028;4.696;2023-09-19T10:56:48;12.93;;;2.33;;
58208;SDS011;44006;52.028;4.696;2023-09-19T10:59:16;13.43;;;2.45;;
58208;SDS011;44006;52.028;4.696;2023-09-19T11:01:45;13.55;;;2.20;;
58208;SDS011;44006;52.028;4.696;2023-09-19T11:07:00;11.48;;;2.30;;
58208;SDS011;44006;52.028;4.696;2023-09-19T11:09:44;13.02;;;2.50;;
58208;SDS011;44006;52.028;4.696;2023-09-19T11:12:57;14.00;;;2.45;;
58208;SDS011;44006;52.028;4.696;2023-09-19T11:15:07;9.25;;;2.25;;
58208;SDS011;44006;52.028;4.696;2023-09-19T11:17:39;8.90;;;2.58;;
58208;SDS011;44006;52.028;4.696;2023-09-19T11:30:50;10.40;;;2.28;;
58208;SDS011;44006;52.028;4.696;2023-09-19T11:43:45;6.05;;;2.10;;
58208;SDS011;44006;52.028;4.696;2023-09-19T11:46:11;12.40;;;2.30;;
58208;SDS011;44006;52.028;4.696;2023-09-19T11:48:38;9.05;;;1.90;;
58208;SDS011;44006;52.028;4.696;2023-09-19T11:51:09;9.50;;;1.75;;
58208;SDS011;44006;52.028;4.696;2023-09-19T11:53:40;6.70;;;2.00;;
58208;SDS011;44006;52.028;4.696;2023-09-19T11:56:06;9.55;;;2.05;;
58208;SDS011;44006;52.028;4.696;2023-09-19T11:58:35;9.63;;;1.92;;
58208;SDS011;44006;52.028;4.696;2023-09-19T12:01:00;10.85;;;1.98;;
58208;SDS011;44006;52.028;4.696;2023-09-19T12:03:30;13.70;;;2.10;;
58208;SDS011;44006;52.028;4.696;2023-09-19T12:05:56;11.00;;;2.47;;
58208;SDS011;44006;52.028;4.696;2023-09-19T12:08:23;10.45;;;1.90;;
58208;SDS011;44006;52.028;4.696;2023-09-19T12:10:48;9.90;;;1.90;;
58208;SDS011;44006;52.028;4.696;2023-09-19T12:13:17;7.88;;;2.05;;
58208;SDS011;44006;52.028;4.696;2023-09-19T12:15:43;8.70;;;1.80;;
58208;SDS011;44006;52.028;4.696;2023-09-19T12:18:10;8.60;;;1.65;;
58208;SDS011;44006;52.028;4.696;2023-09-19T12:20:50;7.05;;;1.58;;
58208;SDS011;44006;52.028;4.696;2023-09-19T12:23:17;11.20;;;2.22;;
58208;SDS011;44006;52.028;4.696;2023-09-19T12:25:43;6.53;;;1.60;;
58208;SDS011;44006;52.028;4.696;2023-09-19T12:28:17;7.28;;;1.85;;
58208;SDS011;44006;52.028;4.696;2023-09-19T12:30:43;8.00;;;1.50;;
58208;SDS011;44006;52.028;4.696;2023-09-19T12:33:18;10.20;;;2.00;;
58208;SDS011;44006;52.028;4.696;2023-09-19T12:35:45;6.43;;;1.95;;
58208;SDS011;44006;52.028;4.696;2023-09-19T12:38:10;10.02;;;1.80;;
58208;SDS011;44006;52.028;4.696;2023-09-19T12:40:37;8.43;;;1.90;;
58208;SDS011;44006;52.028;4.696;2023-09-19T12:43:03;5.68;;;1.70;;
58208;SDS011;44006;52.028;4.696;2023-09-19T12:45:32;11.02;;;2.03;;
58208;SDS011;44006;52.028;4.696;2023-09-19T12:51:12;9.70;;;1.67;;
58208;SDS011;44006;52.028;4.696;2023-09-19T12:56:07;5.57;;;1.60;;
58208;SDS011;44006;52.028;4.696;2023-09-19T12:58:34;12.35;;;1.95;;
58208;SDS011;44006;52.028;4.696;2023-09-19T13:01:00;6.85;;;2.08;;
58208;SDS011;44006;52.028;4.696;2023-09-19T13:03:28;9.82;;;2.08;;
58208;SDS011;44006;52.028;4.696;2023-09-19T13:06:02;10.75;;;2.00;;
58208;SDS011;44006;52.028;4.696;2023-09-19T13:08:36;9.77;;;1.88;;
58208;SDS011;44006;52.028;4.696;2023-09-19T13:11:10;12.05;;;2.22;;
58208;SDS011;44006;52.028;4.696;2023-09-19T13:16:26;6.97;;;1.52;;
58208;SDS011;44006;52.028;4.696;2023-09-19T13:18:52;9.55;;;1.85;;
58208;SDS011;44006;52.028;4.696;2023-09-19T13:23:53;10.43;;;2.08;;
58208;SDS011;44006;52.028;4.696;2023-09-19T13:26:27;11.10;;;1.92;;
58208;SDS011;44006;52.028;4.696;2023-09-19T13:28:53;9.43;;;1.83;;
58208;SDS011;44006;52.028;4.696;2023-09-19T13:31:19;6.03;;;1.75;;
58208;SDS011;44006;52.028;4.696;2023-09-19T13:33:44;11.10;;;2.05;;
58208;SDS011;44006;52.028;4.696;2023-09-19T13:36:12;8.95;;;2.20;;
58208;SDS011;44006;52.028;4.696;2023-09-19T13:38:41;11.43;;;2.08;;
58208;SDS011;44006;52.028;4.696;2023-09-19T13:41:09;13.20;;;2.17;;
58208;SDS011;44006;52.028;4.696;2023-09-19T13:43:36;9.07;;;2.20;;
58208;SDS011;44006;52.028;4.696;2023-09-19T13:46:01;8.93;;;2.05;;
58208;SDS011;44006;52.028;4.696;2023-09-19T13:48:27;11.18;;;2.22;;
58208;SDS011;44006;52.028;4.696;2023-09-19T13:50:55;8.93;;;1.95;;
58208;SDS011;44006;52.028;4.696;2023-09-19T13:53:20;7.72;;;2.05;;
58208;SDS011;44006;52.028;4.696;2023-09-19T13:55:46;8.50;;;2.30;;
58208;SDS011;44006;52.028;4.696;2023-09-19T13:58:12;8.57;;;2.47;;
58208;SDS011;44006;52.028;4.696;2023-09-19T14:00:37;8.40;;;2.10;;
58208;SDS011;44006;52.028;4.696;2023-09-19T14:03:03;11.23;;;2.70;;
58208;SDS011;44006;52.028;4.696;2023-09-19T14:05:29;11.18;;;2.65;;
58208;SDS011;44006;52.028;4.696;2023-09-19T14:07:54;10.25;;;2.50;;
58208;SDS011;44006;52.028;4.696;2023-09-19T14:10:21;10.70;;;2.95;;
58208;SDS011;44006;52.028;4.696;2023-09-19T14:12:46;9.98;;;2.47;;
58208;SDS011;44006;52.028;4.696;2023-09-19T14:15:11;11.25;;;2.50;;
58208;SDS011;44006;52.028;4.696;2023-09-19T14:17:37;5.35;;;2.35;;
58208;SDS011;44006;52.028;4.696;2023-09-19T14:20:03;12.98;;;2.80;;
58208;SDS011;44006;52.028;4.696;2023-09-19T14:22:28;13.02;;;2.60;;
58208;SDS011;44006;52.028;4.696;2023-09-19T14:24:53;13.93;;;2.75;;
58208;SDS011;44006;52.028;4.696;2023-09-19T14:27:19;9.90;;;2.63;;
58208;SDS011;44006;52.028;4.696;2023-09-19T14:29:45;9.65;;;2.55;;
58208;SDS011;44006;52.028;4.696;2023-09-19T14:32:10;8.48;;;2.65;;
58208;SDS011;44006;52.028;4.696;2023-09-19T14:34:35;9.65;;;2.30;;
58208;SDS011;44006;52.028;4.696;2023-09-19T14:37:06;10.55;;;3.03;;
58208;SDS011;44006;52.028;4.696;2023-09-19T14:39:32;10.20;;;2.78;;
58208;SDS011;44006;52.028;4.696;2023-09-19T14:41:57;8.05;;;2.45;;
58208;SDS011;44006;52.028;4.696;2023-09-19T14:44:22;8.50;;;2.72;;
58208;SDS011;44006;52.028;4.696;2023-09-19T14:46:47;8.68;;;2.30;;
58208;SDS011;44006;52.028;4.696;2023-09-19T14:49:13;9.97;;;2.40;;
58208;SDS011;44006;52.028;4.696;2023-09-19T14:51:40;10.13;;;2.35;;
58208;SDS011;44006;52.028;4.696;2023-09-19T14:54:06;13.60;;;2.55;;
58208;SDS011;44006;52.028;4.696;2023-09-19T14:56:33;11.30;;;2.95;;
58208;SDS011;44006;52.028;4.696;2023-09-19T14:58:58;15.80;;;3.08;;
58208;SDS011;44006;52.028;4.696;2023-09-19T15:01:23;7.85;;;2.50;;
58208;SDS011;44006;52.028;4.696;2023-09-19T15:03:49;15.52;;;3.15;;
58208;SDS011;44006;52.028;4.696;2023-09-19T15:06:14;9.73;;;2.95;;
58208;SDS011;44006;52.028;4.696;2023-09-19T15:08:41;9.98;;;2.40;;
58208;SDS011;44006;52.028;4.696;2023-09-19T15:11:13;12.65;;;3.30;;
58208;SDS011;44006;52.028;4.696;2023-09-19T15:13:41;10.90;;;2.80;;
58208;SDS011;44006;52.028;4.696;2023-09-19T15:16:07;10.50;;;2.70;;
58208;SDS011;44006;52.028;4.696;2023-09-19T15:18:36;12.25;;;2.88;;
58208;SDS011;44006;52.028;4.696;2023-09-19T15:21:06;16.83;;;3.83;;
58208;SDS011;44006;52.028;4.696;2023-09-19T15:23:32;12.23;;;3.15;;
58208;SDS011;44006;52.028;4.696;2023-09-19T15:26:21;9.35;;;2.47;;
58208;SDS011;44006;52.028;4.696;2023-09-19T15:28:47;12.05;;;3.20;;
58208;SDS011;44006;52.028;4.696;2023-09-19T15:31:13;10.82;;;2.85;;
58208;SDS011;44006;52.028;4.696;2023-09-19T15:33:38;7.82;;;2.67;;
58208;SDS011;44006;52.028;4.696;2023-09-19T15:36:04;8.30;;;2.55;;